createdAt,value
2022-12-19T00:00:16.815Z,-5.97
2022-12-19T00:02:44.798Z,-6.02
2022-12-19T00:05:14.258Z,-6.07
2022-12-19T00:07:41.494Z,-6.08
2022-12-19T00:10:09.494Z,-6.11
2022-12-19T00:12:37.260Z,-6.14
2022-12-19T00:15:05.289Z,-6.19
2022-12-19T00:17:33.481Z,-6.20
2022-12-19T00:20:04.472Z,-6.15
2022-12-19T00:22:31.836Z,-6.14
2022-12-19T00:24:59.085Z,-6.12
2022-12-19T00:27:26.831Z,-6.14
2022-12-19T00:29:54.502Z,-6.05
2022-12-19T00:32:22.170Z,-6.04
2022-12-19T00:34:49.505Z,-6.06
2022-12-19T00:37:17.117Z,-6.15
2022-12-19T00:39:44.508Z,-6.16
2022-12-19T00:42:12.509Z,-6.13
2022-12-19T00:44:40.040Z,-5.99
2022-12-19T00:47:07.596Z,-5.87
2022-12-19T00:49:35.435Z,-5.69
2022-12-19T00:52:05.261Z,-5.52
2022-12-19T00:54:32.584Z,-5.30
2022-12-19T00:57:00.714Z,-5.18
2022-12-19T00:59:27.852Z,-5.06
2022-12-19T01:01:55.588Z,-4.91
2022-12-19T01:04:29.111Z,-4.83
2022-12-19T01:06:58.087Z,-4.70
2022-12-19T01:09:31.515Z,-4.61
2022-12-19T01:12:17.721Z,-4.48
2022-12-19T01:14:45.292Z,-4.40
2022-12-19T01:17:13.096Z,-4.36
2022-12-19T01:19:44.297Z,-4.31
2022-12-19T01:22:15.064Z,-4.17
2022-12-19T01:24:43.120Z,-4.02
2022-12-19T01:27:10.500Z,-3.94
2022-12-19T01:29:51.167Z,-3.90
2022-12-19T01:32:21.622Z,-3.84
2022-12-19T01:34:48.997Z,-3.80
2022-12-19T01:37:16.733Z,-3.78
2022-12-19T01:39:44.971Z,-3.68
2022-12-19T01:42:23.522Z,-3.69
2022-12-19T01:45:13.417Z,-3.64
2022-12-19T01:47:54.740Z,-3.55
2022-12-19T01:50:51.433Z,-3.59
2022-12-19T01:53:34.031Z,-3.50
2022-12-19T01:56:09.069Z,-3.52
2022-12-19T01:58:38.085Z,-3.60
2022-12-19T02:01:06.353Z,-3.55
2022-12-19T02:03:35.670Z,-3.57
2022-12-19T02:06:05.661Z,-3.65
2022-12-19T02:08:33.018Z,-3.49
2022-12-19T02:11:03.037Z,-3.38
2022-12-19T02:13:30.624Z,-3.29
2022-12-19T02:16:22.657Z,-3.16
2022-12-19T02:19:17.907Z,-3.18
2022-12-19T02:21:49.401Z,-3.09
2022-12-19T02:24:20.875Z,-3.06
2022-12-19T02:27:02.048Z,-3.10
2022-12-19T02:29:56.498Z,-3.07
2022-12-19T02:33:01.566Z,-2.95
2022-12-19T02:35:36.889Z,-2.81
2022-12-19T02:38:16.702Z,-2.75
2022-12-19T02:41:01.314Z,-2.65
2022-12-19T02:43:31.041Z,-2.60
2022-12-19T02:45:59.508Z,-2.59
2022-12-19T02:48:27.761Z,-2.65
2022-12-19T02:50:55.207Z,-2.55
2022-12-19T02:53:23.928Z,-2.51
2022-12-19T02:56:14.664Z,-2.46
2022-12-19T02:59:00.729Z,-2.41
2022-12-19T03:01:58.476Z,-2.40
2022-12-19T03:04:39.751Z,-2.34
2022-12-19T03:07:17.240Z,-2.37
2022-12-19T03:09:59.342Z,-2.39
2022-12-19T03:12:35.561Z,-2.34
2022-12-19T03:15:03.948Z,-2.32
2022-12-19T03:17:36.040Z,-2.28
2022-12-19T03:20:11.586Z,-2.26
2022-12-19T03:22:39.354Z,-2.22
2022-12-19T03:25:07.614Z,-2.23
2022-12-19T03:27:36.098Z,-2.17
2022-12-19T03:30:12.775Z,-2.24
2022-12-19T03:32:42.592Z,-2.20
2022-12-19T03:35:16.363Z,-2.15
2022-12-19T03:37:45.164Z,-2.12
2022-12-19T03:40:19.800Z,-2.06
2022-12-19T03:43:07.610Z,-2.08
2022-12-19T03:45:40.920Z,-2.01
2022-12-19T03:48:15.891Z,-2.00
2022-12-19T03:50:53.809Z,-2.00
2022-12-19T03:53:45.997Z,-2.00
2022-12-19T03:56:38.901Z,-2.03
2022-12-19T03:59:28.814Z,-1.99
2022-12-19T04:01:57.727Z,-1.99
2022-12-19T04:04:28.018Z,-1.98
2022-12-19T04:06:55.692Z,-1.94
2022-12-19T04:09:24.284Z,-2.03
2022-12-19T04:11:55.138Z,-2.05
2022-12-19T04:14:31.749Z,-2.01
2022-12-19T04:17:33.392Z,-2.01
2022-12-19T04:20:09.391Z,-1.99
2022-12-19T04:22:44.031Z,-1.98
2022-12-19T04:25:15.404Z,-2.03
2022-12-19T04:27:46.788Z,-1.99
2022-12-19T04:30:17.031Z,-2.01
2022-12-19T04:32:45.055Z,-2.00
2022-12-19T04:35:12.836Z,-1.92
2022-12-19T04:37:40.639Z,-1.88
2022-12-19T04:40:09.045Z,-1.91
2022-12-19T04:42:37.048Z,-1.91
2022-12-19T04:45:06.061Z,-1.87
2022-12-19T04:47:33.632Z,-1.84
2022-12-19T04:50:01.400Z,-1.84
2022-12-19T04:52:28.844Z,-1.84
2022-12-19T04:54:56.055Z,-1.81
2022-12-19T04:57:23.753Z,-1.83
2022-12-19T04:59:51.056Z,-1.82
2022-12-19T05:02:18.957Z,-1.85
2022-12-19T05:04:46.835Z,-1.84
2022-12-19T05:07:14.652Z,-1.77
2022-12-19T05:09:42.014Z,-1.79
2022-12-19T05:12:10.516Z,-1.76
2022-12-19T05:14:38.706Z,-1.75
2022-12-19T05:17:06.418Z,-1.73
2022-12-19T05:19:33.856Z,-1.69
2022-12-19T05:22:01.067Z,-1.66
2022-12-19T05:24:28.853Z,-1.60
2022-12-19T05:26:56.333Z,-1.62
2022-12-19T05:29:23.715Z,-1.65
2022-12-19T05:31:51.074Z,-1.66
2022-12-19T05:34:18.650Z,-1.65
2022-12-19T05:36:46.803Z,-1.63
2022-12-19T05:39:14.571Z,-1.57
2022-12-19T05:41:41.968Z,-1.55
2022-12-19T05:44:09.910Z,-1.51
2022-12-19T05:46:37.718Z,-1.55
2022-12-19T05:49:05.052Z,-1.50
2022-12-19T05:51:32.863Z,-1.47
2022-12-19T05:54:03.188Z,-1.54
2022-12-19T05:56:31.086Z,-1.54
2022-12-19T05:58:58.281Z,-1.48
2022-12-19T06:01:27.977Z,-1.47
2022-12-19T06:03:55.715Z,-1.42
2022-12-19T06:06:25.092Z,-1.43
2022-12-19T06:08:56.046Z,-1.41
2022-12-19T06:11:23.965Z,-1.34
2022-12-19T06:13:53.982Z,-1.32
2022-12-19T06:16:22.046Z,-1.31
2022-12-19T06:18:49.079Z,-1.29
2022-12-19T06:21:21.859Z,-1.29
2022-12-19T06:23:49.199Z,-1.23
2022-12-19T06:26:20.093Z,-1.22
2022-12-19T06:28:48.876Z,-1.23
2022-12-19T06:31:16.932Z,-1.21
2022-12-19T06:33:44.317Z,-1.25
2022-12-19T06:36:23.911Z,-1.28
2022-12-19T06:38:52.011Z,-1.05
2022-12-19T06:41:38.848Z,-1.02
2022-12-19T06:44:09.049Z,-1.02
2022-12-19T06:46:37.521Z,-0.77
2022-12-19T06:49:05.091Z,-0.41
2022-12-19T06:51:32.893Z,-0.72
2022-12-19T07:00:55.252Z,-1.00
2022-12-19T07:03:26.363Z,-0.92
2022-12-19T07:05:54.480Z,-0.94
2022-12-19T07:08:21.456Z,-1.12
2022-12-19T07:10:48.337Z,-1.20
2022-12-19T07:13:15.474Z,-1.27
2022-12-19T07:15:42.404Z,-1.26
2022-12-19T07:18:09.864Z,-1.33
2022-12-19T07:20:41.827Z,-1.44
2022-12-19T07:23:14.688Z,-1.50
2022-12-19T07:25:42.081Z,-1.50
2022-12-19T07:28:09.083Z,-1.41
2022-12-19T07:30:36.077Z,-1.49
2022-12-19T07:33:02.945Z,-1.46
2022-12-19T07:35:30.003Z,-1.48
2022-12-19T07:38:02.974Z,-1.48
2022-12-19T07:40:30.042Z,-1.42
2022-12-19T07:43:00.801Z,-1.40
2022-12-19T07:45:28.198Z,-1.38
2022-12-19T07:47:55.029Z,-1.33
2022-12-19T07:50:22.437Z,-1.24
2022-12-19T07:52:49.195Z,-1.24
2022-12-19T07:55:16.515Z,-1.33
2022-12-19T07:57:47.069Z,-1.38
2022-12-19T08:00:15.339Z,-1.30
2022-12-19T08:02:42.947Z,-1.29
2022-12-19T08:05:11.712Z,-1.30
2022-12-19T08:07:38.701Z,-1.27
2022-12-19T08:10:07.025Z,-1.20
2022-12-19T08:12:34.463Z,-1.19
2022-12-19T08:15:01.397Z,-1.22
2022-12-19T08:17:28.525Z,-1.16
2022-12-19T08:19:55.822Z,-1.05
2022-12-19T08:22:23.311Z,-1.18
2022-12-19T08:24:50.553Z,-1.18
2022-12-19T08:27:17.758Z,-1.07
2022-12-19T08:29:44.891Z,-0.99
2022-12-19T08:32:17.058Z,-0.91
2022-12-19T08:34:47.526Z,-0.88
2022-12-19T08:37:14.656Z,-0.76
2022-12-19T08:39:41.499Z,-0.69
2022-12-19T08:42:08.369Z,-0.51
2022-12-19T08:44:35.862Z,-0.37
2022-12-19T08:47:04.726Z,-0.41
2022-12-19T08:49:31.654Z,-0.35
2022-12-19T08:52:01.990Z,-0.17
2022-12-19T08:54:28.859Z,-0.03
2022-12-19T08:56:56.841Z,-0.12
2022-12-19T08:59:30.734Z,-0.03
2022-12-19T09:02:03.457Z,-0.09
2022-12-19T09:05:57.342Z,-0.24
2022-12-19T09:07:22.345Z,-0.22
2022-12-19T09:09:49.106Z,-0.42
2022-12-19T09:12:16.822Z,-0.21
2022-12-19T09:14:44.474Z,-0.32
2022-12-19T09:17:11.341Z,-0.31
2022-12-19T09:19:38.212Z,-0.19
2022-12-19T09:22:05.888Z,-0.13
2022-12-19T09:24:33.854Z,-0.23
2022-12-19T09:27:00.633Z,-0.28
2022-12-19T09:29:32.221Z,-0.12
2022-12-19T09:32:01.971Z,-0.17
2022-12-19T09:34:38.145Z,-0.60
2022-12-19T09:37:16.024Z,-0.26
2022-12-19T09:39:45.660Z,-0.09
2022-12-19T09:42:22.359Z,-0.04
2022-12-19T09:45:08.297Z,0.59
2022-12-19T09:47:39.672Z,0.57
2022-12-19T09:50:30.726Z,0.34
2022-12-19T09:53:08.257Z,0.41
2022-12-19T09:55:38.101Z,0.36
2022-12-19T09:58:43.506Z,0.45
2022-12-19T10:01:19.614Z,0.74
2022-12-19T10:03:59.612Z,1.17
2022-12-19T10:07:21.277Z,1.26
2022-12-19T10:12:05.135Z,1.59
2022-12-19T10:12:44.448Z,1.59
2022-12-19T10:15:26.211Z,1.58
2022-12-19T10:18:20.582Z,1.59
2022-12-19T10:21:59.059Z,1.67
2022-12-19T10:24:23.804Z,1.64
2022-12-19T10:26:56.941Z,2.16
2022-12-19T10:30:01.281Z,3.09
2022-12-19T10:32:54.794Z,3.53
2022-12-19T10:35:22.587Z,3.70
2022-12-19T10:38:05.346Z,4.31
2022-12-19T10:40:37.612Z,4.86
2022-12-19T10:43:33.946Z,4.94
2022-12-19T10:46:13.395Z,4.67
2022-12-19T10:48:40.376Z,5.34
2022-12-19T10:51:13.684Z,5.41
2022-12-19T10:54:09.029Z,4.10
2022-12-19T10:56:37.957Z,4.26
2022-12-19T10:59:16.121Z,3.94
2022-12-19T11:01:43.438Z,4.42
2022-12-19T11:04:30.671Z,4.78
2022-12-19T11:07:03.708Z,4.29
2022-12-19T11:09:32.809Z,4.16
2022-12-19T11:18:15.275Z,3.99
2022-12-19T11:19:42.603Z,3.52
2022-12-19T11:29:17.150Z,3.26
2022-12-19T11:29:32.465Z,2.46
2022-12-19T11:29:42.762Z,2.87
2022-12-19T11:30:35.302Z,2.16
2022-12-19T11:31:52.977Z,2.25
2022-12-19T11:32:40.658Z,2.29
2022-12-19T11:35:18.508Z,2.05
2022-12-19T11:38:06.177Z,2.08
2022-12-19T11:40:34.040Z,2.19
2022-12-19T11:43:46.657Z,2.32
2022-12-19T11:46:41.430Z,2.32
2022-12-19T11:49:13.529Z,2.24
2022-12-19T11:51:45.855Z,2.09
2022-12-19T11:54:23.901Z,2.06
2022-12-19T11:56:51.113Z,2.02
2022-12-19T11:59:27.743Z,1.82
2022-12-19T12:02:25.635Z,1.83
2022-12-19T12:05:17.170Z,1.88
2022-12-19T12:11:07.983Z,1.81
2022-12-19T12:16:00.717Z,2.12
2022-12-19T12:23:43.105Z,2.36
2022-12-19T12:31:01.842Z,1.74
2022-12-19T12:31:08.710Z,1.68
2022-12-19T12:31:39.146Z,2.40
2022-12-19T12:31:39.618Z,2.56
2022-12-19T12:31:40.352Z,2.04
2022-12-19T12:35:48.609Z,2.48
2022-12-19T12:42:05.592Z,2.32
2022-12-19T12:44:41.102Z,2.43
2022-12-19T12:47:24.384Z,2.19
2022-12-19T12:50:13.870Z,2.19
2022-12-19T12:52:44.080Z,2.22
2022-12-19T12:55:30.234Z,2.19
2022-12-19T12:57:57.866Z,2.01
2022-12-19T13:00:26.933Z,1.69
2022-12-19T13:03:12.003Z,1.45
2022-12-19T13:05:40.893Z,1.28
2022-12-19T13:08:34.277Z,1.08
2022-12-19T13:11:03.492Z,1.02
2022-12-19T13:13:58.200Z,0.91
2022-12-19T13:16:43.316Z,0.82
2022-12-19T13:19:35.359Z,0.75
2022-12-19T13:22:05.627Z,0.79
2022-12-19T13:24:45.400Z,0.73
2022-12-19T13:27:21.575Z,0.77
2022-12-19T13:30:00.767Z,0.77
2022-12-19T13:32:32.621Z,0.52
2022-12-19T13:35:56.522Z,0.41
2022-12-19T13:40:01.585Z,0.46
2022-12-19T13:41:02.017Z,0.44
2022-12-19T13:43:47.862Z,0.46
2022-12-19T13:46:29.193Z,0.33
2022-12-19T13:49:00.439Z,0.30
2022-12-19T13:51:27.422Z,0.18
2022-12-19T13:53:59.559Z,0.11
2022-12-19T13:56:30.812Z,0.13
2022-12-19T13:59:00.732Z,-0.06
2022-12-19T14:01:33.556Z,0.02
2022-12-19T14:04:07.894Z,0.12
2022-12-19T14:06:47.513Z,0.23
2022-12-19T14:11:26.874Z,0.30
2022-12-19T14:13:52.979Z,0.35
2022-12-19T14:15:41.227Z,0.50
2022-12-19T14:18:45.107Z,0.51
2022-12-19T14:22:04.607Z,0.56
2022-12-19T14:24:11.008Z,0.53
2022-12-19T14:28:17.737Z,0.40
2022-12-19T14:30:28.625Z,0.35
2022-12-19T14:33:44.255Z,0.28
2022-12-19T14:36:06.038Z,0.20
2022-12-19T14:39:20.914Z,0.02
2022-12-19T14:41:08.440Z,-0.06
2022-12-19T14:43:58.694Z,-0.19
2022-12-19T14:52:35.101Z,-0.37
2022-12-19T14:54:10.728Z,-0.53
2022-12-19T14:54:30.698Z,-0.68
2022-12-19T14:56:13.076Z,-0.74
2022-12-19T14:58:54.819Z,-0.85
2022-12-19T15:01:26.051Z,-0.94
2022-12-19T15:04:48.616Z,-0.99
2022-12-19T15:07:23.471Z,-1.01
2022-12-19T15:11:06.146Z,-1.09
2022-12-19T15:14:53.151Z,-1.04
2022-12-19T15:16:26.959Z,-0.99
2022-12-19T15:18:57.380Z,-0.99
2022-12-19T15:21:24.933Z,-1.03
2022-12-19T15:23:52.232Z,-1.12
2022-12-19T15:26:27.358Z,-1.16
2022-12-19T15:28:56.411Z,-1.15
2022-12-19T15:31:30.290Z,-1.21
2022-12-19T15:36:45.440Z,-1.30
2022-12-19T15:39:15.143Z,-1.33
2022-12-19T15:41:42.619Z,-1.31
2022-12-19T15:44:19.315Z,-1.24
2022-12-19T15:46:49.192Z,-1.36
2022-12-19T15:49:19.162Z,-1.39
2022-12-19T15:51:47.281Z,-1.40
2022-12-19T15:54:47.242Z,-1.39
2022-12-19T15:57:01.938Z,-1.37
2022-12-19T15:59:37.464Z,-1.35
2022-12-19T16:02:15.990Z,-1.32
2022-12-19T16:04:44.187Z,-1.25
2022-12-19T16:07:19.500Z,-1.24
2022-12-19T16:09:47.173Z,-1.27
2022-12-19T16:12:22.467Z,-1.28
2022-12-19T16:14:56.343Z,-1.29
2022-12-19T16:17:25.420Z,-1.27
2022-12-19T16:19:52.669Z,-1.25
2022-12-19T16:22:23.179Z,-1.24
2022-12-19T16:24:51.470Z,-1.25
2022-12-19T16:27:21.476Z,-1.21
2022-12-19T16:29:48.721Z,-1.19
2022-12-19T16:32:16.101Z,-1.10
2022-12-19T16:34:43.299Z,-1.05
2022-12-19T16:37:10.318Z,-1.02
2022-12-19T16:39:37.434Z,-1.08
2022-12-19T16:42:05.957Z,-1.16
2022-12-19T16:44:34.430Z,-1.18
2022-12-19T16:47:01.333Z,-1.21
2022-12-19T16:49:28.627Z,-1.16
2022-12-19T16:51:55.486Z,-1.16
2022-12-19T16:54:22.691Z,-1.14
2022-12-19T16:56:52.313Z,-1.05
2022-12-19T16:59:22.126Z,-0.99
2022-12-19T17:01:49.645Z,-0.98
2022-12-19T17:04:22.830Z,-0.88
2022-12-19T17:06:52.464Z,-0.88
2022-12-19T17:09:23.527Z,-0.90
2022-12-19T17:11:53.742Z,-0.93
2022-12-19T17:14:26.570Z,-0.97
2022-12-19T17:16:55.615Z,-0.98
2022-12-19T17:19:36.978Z,-0.89
2022-12-19T17:22:13.138Z,-0.88
2022-12-19T17:24:40.574Z,-0.84
2022-12-19T17:27:08.224Z,-0.84
2022-12-19T17:29:35.226Z,-0.77
2022-12-19T17:32:02.798Z,-0.74
2022-12-19T17:34:32.226Z,-0.75
2022-12-19T17:37:00.747Z,-0.73
2022-12-19T17:39:29.684Z,-0.72
2022-12-19T17:41:59.751Z,-0.71
2022-12-19T17:44:27.326Z,-0.67
2022-12-19T17:46:54.756Z,-0.65
2022-12-19T17:49:27.327Z,-0.66
2022-12-19T17:51:55.156Z,-0.63
2022-12-19T17:54:23.483Z,-0.60
2022-12-19T17:56:51.471Z,-0.59
2022-12-19T17:59:19.429Z,-0.61
2022-12-19T18:01:47.525Z,-0.69
2022-12-19T18:04:17.343Z,-0.65
2022-12-19T18:06:45.285Z,-0.66
2022-12-19T18:09:20.347Z,-0.62
2022-12-19T18:11:48.765Z,-0.62
2022-12-19T18:14:16.606Z,-0.65
2022-12-19T18:16:44.766Z,-0.64
2022-12-19T18:19:19.727Z,-0.65
2022-12-19T18:21:47.186Z,-0.58
2022-12-19T18:24:18.182Z,-0.56
2022-12-19T18:26:45.634Z,-0.58
2022-12-19T18:29:13.563Z,-0.58
2022-12-19T18:31:48.190Z,-0.64
2022-12-19T18:34:20.181Z,-0.72
2022-12-19T18:36:47.616Z,-0.66
2022-12-19T18:39:28.628Z,-0.65
2022-12-19T18:41:56.109Z,-0.71
2022-12-19T18:44:23.649Z,-0.63
2022-12-19T18:46:52.015Z,-0.66
2022-12-19T18:49:19.835Z,-0.63
2022-12-19T18:51:47.324Z,-0.59
2022-12-19T18:54:18.520Z,-0.63
2022-12-19T18:56:46.446Z,-0.66
2022-12-19T18:59:14.203Z,-0.71
2022-12-19T19:01:44.815Z,-0.66
2022-12-19T19:04:14.635Z,-0.63
2022-12-19T19:06:48.538Z,-0.63
2022-12-19T19:09:18.525Z,-0.61
2022-12-19T19:11:45.915Z,-0.62
2022-12-19T19:14:13.377Z,-0.63
2022-12-19T19:16:40.817Z,-0.58
2022-12-19T19:19:11.217Z,-0.70
2022-12-19T19:21:39.220Z,-0.72
2022-12-19T19:24:09.528Z,-0.84
2022-12-19T19:26:37.126Z,-0.81
2022-12-19T19:29:05.545Z,-0.80
2022-12-19T19:31:35.851Z,-0.77
2022-12-19T19:34:13.227Z,-0.75
2022-12-19T19:36:42.806Z,-0.71
2022-12-19T19:39:11.237Z,-0.76
2022-12-19T19:41:38.667Z,-0.70
2022-12-19T19:44:05.927Z,-0.94
2022-12-19T19:46:33.315Z,-1.06
2022-12-19T19:49:00.553Z,-0.99
2022-12-19T19:51:29.255Z,-1.01
2022-12-19T19:53:56.668Z,-0.92
2022-12-19T19:56:24.400Z,-0.85
2022-12-19T19:58:52.567Z,-0.88
2022-12-19T20:01:20.167Z,-0.87
2022-12-19T20:03:48.713Z,-0.80
2022-12-19T20:06:16.665Z,-0.82
2022-12-19T20:08:43.928Z,-0.78
2022-12-19T20:11:11.236Z,-0.73
2022-12-19T20:13:38.696Z,-0.66
2022-12-19T20:16:10.472Z,-0.63
2022-12-19T20:18:40.064Z,-0.60
2022-12-19T20:21:12.681Z,-0.54
2022-12-19T20:23:42.345Z,-0.55
2022-12-19T20:26:11.699Z,-0.68
2022-12-19T20:28:47.851Z,-0.65
2022-12-19T20:31:16.843Z,-0.62
2022-12-19T20:33:45.373Z,-0.62
2022-12-19T20:36:13.868Z,-0.58
2022-12-19T20:38:41.308Z,-0.56
2022-12-19T20:41:09.080Z,-0.50
2022-12-19T20:43:38.455Z,-0.45
2022-12-19T20:46:14.018Z,-0.43
2022-12-19T20:48:41.696Z,-0.45
2022-12-19T20:51:10.127Z,-0.43
2022-12-19T20:53:38.613Z,-0.45
2022-12-19T20:56:07.085Z,-0.49
2022-12-19T20:58:36.381Z,-0.46
2022-12-19T21:01:12.137Z,-0.48
2022-12-19T21:03:40.032Z,-0.48
2022-12-19T21:06:09.172Z,-0.48
2022-12-19T21:08:36.911Z,-0.48
2022-12-19T21:11:05.753Z,-0.48
2022-12-19T21:13:33.537Z,-0.49
2022-12-19T21:16:07.417Z,-0.48
2022-12-19T21:18:36.861Z,-0.54
2022-12-19T21:21:04.727Z,-0.62
2022-12-19T21:23:32.417Z,-0.61
2022-12-19T21:26:01.482Z,-0.53
2022-12-19T21:28:29.476Z,-0.50
2022-12-19T21:31:06.945Z,-0.53
2022-12-19T21:33:34.464Z,-0.50
2022-12-19T21:36:09.864Z,-0.52
2022-12-19T21:38:37.829Z,-0.49
2022-12-19T21:41:06.116Z,-0.50
2022-12-19T21:43:36.975Z,-0.53
2022-12-19T21:46:14.361Z,-0.54
2022-12-19T21:48:43.972Z,-0.51
2022-12-19T21:51:12.763Z,-0.51
2022-12-19T21:53:40.638Z,-0.45
2022-12-19T21:56:26.640Z,-0.40
2022-12-19T21:58:59.207Z,-0.35
2022-12-19T22:01:27.982Z,-0.41
2022-12-19T22:04:06.850Z,-0.38
2022-12-19T22:06:35.337Z,-0.38
2022-12-19T22:09:04.324Z,-0.44
2022-12-19T22:11:31.877Z,-0.49
2022-12-19T22:14:01.074Z,-0.53
2022-12-19T22:16:29.444Z,-0.54
2022-12-19T22:18:56.991Z,-0.50
2022-12-19T22:21:25.432Z,-0.51
2022-12-19T22:23:53.117Z,-0.53
2022-12-19T22:26:22.883Z,-0.45
2022-12-19T22:28:53.121Z,-0.49
2022-12-19T22:31:31.707Z,-0.53
2022-12-19T22:34:03.088Z,-0.50
2022-12-19T22:36:32.462Z,-0.51
2022-12-19T22:39:01.785Z,-0.53
2022-12-19T22:41:28.986Z,-0.57
2022-12-19T22:43:56.794Z,-0.61
2022-12-19T22:46:30.043Z,-0.57
2022-12-19T22:48:58.999Z,-0.53
2022-12-19T22:51:27.502Z,-0.64
2022-12-19T22:53:56.795Z,-0.67
2022-12-19T22:56:26.990Z,-0.63
2022-12-19T22:58:56.671Z,-0.65
2022-12-19T23:01:26.894Z,-0.75
2022-12-19T23:03:55.889Z,-0.75
2022-12-19T23:06:25.616Z,-0.75
2022-12-19T23:08:53.602Z,-0.83
2022-12-19T23:11:25.512Z,-0.78
2022-12-19T23:13:52.909Z,-0.82
2022-12-19T23:16:20.727Z,-0.92
2022-12-19T23:18:48.259Z,-0.90
2022-12-19T23:21:18.818Z,-0.91
2022-12-19T23:23:47.260Z,-0.96
2022-12-19T23:26:17.527Z,-0.92
2022-12-19T23:28:45.533Z,-0.88
2022-12-19T23:31:13.911Z,-0.93
2022-12-19T23:33:41.709Z,-0.90
2022-12-19T23:36:10.527Z,-0.92
2022-12-19T23:38:37.925Z,-0.91
2022-12-19T23:41:07.731Z,-0.88
2022-12-19T23:43:36.589Z,-0.88
2022-12-19T23:46:13.986Z,-0.90
2022-12-19T23:48:42.157Z,-0.89
2022-12-19T23:51:12.929Z,-0.94
2022-12-19T23:53:40.541Z,-0.93
2022-12-19T23:56:12.713Z,-0.97
2022-12-19T23:58:40.735Z,-0.94
